sensor_id;sensor_type;location;lat;lon;timestamp;P1;durP1;ratioP1;P2;durP2;ratioP2
7783;SDS011;19359;51.402;6.778;2024-02-04T00:00:17;3.67;;;3.22;;
7783;SDS011;19359;51.402;6.778;2024-02-04T00:02:44;2.67;;;2.47;;
7783;SDS011;19359;51.402;6.778;2024-02-04T00:05:11;4.00;;;2.60;;
7783;SDS011;19359;51.402;6.778;2024-02-04T00:07:38;2.55;;;2.35;;
7783;SDS011;19359;51.402;6.778;2024-02-04T00:10:05;2.17;;;2.03;;
7783;SDS011;19359;51.402;6.778;2024-02-04T00:12:32;1.70;;;1.48;;
7783;SDS011;19359;51.402;6.778;2024-02-04T00:14:59;1.77;;;1.50;;
7783;SDS011;19359;51.402;6.778;2024-02-04T00:17:27;0.90;;;0.90;;
7783;SDS011;19359;51.402;6.778;2024-02-04T00:19:56;1.45;;;1.00;;
7783;SDS011;19359;51.402;6.778;2024-02-04T00:22:23;0.60;;;0.60;;
7783;SDS011;19359;51.402;6.778;2024-02-04T00:24:49;0.90;;;0.90;;
7783;SDS011;19359;51.402;6.778;2024-02-04T00:27:16;0.82;;;0.80;;
7783;SDS011;19359;51.402;6.778;2024-02-04T00:29:43;1.80;;;1.55;;
7783;SDS011;19359;51.402;6.778;2024-02-04T00:32:10;1.98;;;1.08;;
7783;SDS011;19359;51.402;6.778;2024-02-04T00:34:38;1.55;;;1.45;;
7783;SDS011;19359;51.402;6.778;2024-02-04T00:37:05;2.42;;;2.22;;
7783;SDS011;19359;51.402;6.778;2024-02-04T00:39:32;2.85;;;2.65;;
7783;SDS011;19359;51.402;6.778;2024-02-04T00:41:58;4.00;;;3.00;;
7783;SDS011;19359;51.402;6.778;2024-02-04T00:44:25;3.72;;;2.70;;
7783;SDS011;19359;51.402;6.778;2024-02-04T00:46:52;2.70;;;2.38;;
7783;SDS011;19359;51.402;6.778;2024-02-04T00:49:19;3.42;;;3.13;;
7783;SDS011;19359;51.402;6.778;2024-02-04T00:51:47;5.47;;;3.90;;
7783;SDS011;19359;51.402;6.778;2024-02-04T00:54:13;8.25;;;4.05;;
7783;SDS011;19359;51.402;6.778;2024-02-04T00:56:40;4.78;;;4.15;;
7783;SDS011;19359;51.402;6.778;2024-02-04T00:59:07;7.10;;;5.53;;
7783;SDS011;19359;51.402;6.778;2024-02-04T01:01:34;4.97;;;4.20;;
7783;SDS011;19359;51.402;6.778;2024-02-04T01:04:01;8.75;;;5.85;;
7783;SDS011;19359;51.402;6.778;2024-02-04T01:06:28;6.55;;;5.18;;
7783;SDS011;19359;51.402;6.778;2024-02-04T01:08:56;6.35;;;4.88;;
7783;SDS011;19359;51.402;6.778;2024-02-04T01:11:23;5.80;;;3.35;;
7783;SDS011;19359;51.402;6.778;2024-02-04T01:13:50;3.50;;;3.03;;
7783;SDS011;19359;51.402;6.778;2024-02-04T01:16:17;3.42;;;3.13;;
7783;SDS011;19359;51.402;6.778;2024-02-04T01:18:43;4.45;;;2.97;;
7783;SDS011;19359;51.402;6.778;2024-02-04T01:21:10;3.72;;;2.33;;
7783;SDS011;19359;51.402;6.778;2024-02-04T01:23:37;2.90;;;1.88;;
7783;SDS011;19359;51.402;6.778;2024-02-04T01:26:05;2.35;;;2.25;;
7783;SDS011;19359;51.402;6.778;2024-02-04T01:28:32;2.30;;;2.10;;
7783;SDS011;19359;51.402;6.778;2024-02-04T01:30:58;2.40;;;2.30;;
7783;SDS011;19359;51.402;6.778;2024-02-04T01:33:25;2.58;;;2.42;;
7783;SDS011;19359;51.402;6.778;2024-02-04T01:35:52;2.38;;;2.17;;
7783;SDS011;19359;51.402;6.778;2024-02-04T01:38:19;2.80;;;2.60;;
7783;SDS011;19359;51.402;6.778;2024-02-04T01:40:46;3.15;;;2.15;;
7783;SDS011;19359;51.402;6.778;2024-02-04T01:43:14;3.65;;;3.30;;
7783;SDS011;19359;51.402;6.778;2024-02-04T01:45:40;3.85;;;3.42;;
7783;SDS011;19359;51.402;6.778;2024-02-04T01:48:07;4.90;;;3.33;;
7783;SDS011;19359;51.402;6.778;2024-02-04T01:50:34;3.22;;;2.92;;
7783;SDS011;19359;51.402;6.778;2024-02-04T01:53:01;3.00;;;2.80;;
7783;SDS011;19359;51.402;6.778;2024-02-04T01:55:28;3.05;;;2.78;;
7783;SDS011;19359;51.402;6.778;2024-02-04T01:57:55;4.20;;;3.67;;
7783;SDS011;19359;51.402;6.778;2024-02-04T02:00:23;5.03;;;3.75;;
7783;SDS011;19359;51.402;6.778;2024-02-04T02:02:50;2.97;;;2.78;;
7783;SDS011;19359;51.402;6.778;2024-02-04T02:05:18;3.42;;;3.08;;
7783;SDS011;19359;51.402;6.778;2024-02-04T02:07:45;4.47;;;3.95;;
7783;SDS011;19359;51.402;6.778;2024-02-04T02:10:16;3.50;;;3.08;;
7783;SDS011;19359;51.402;6.778;2024-02-04T02:12:43;2.28;;;2.15;;
7783;SDS011;19359;51.402;6.778;2024-02-04T02:15:15;3.45;;;3.25;;
7783;SDS011;19359;51.402;6.778;2024-02-04T02:17:47;4.43;;;4.13;;
7783;SDS011;19359;51.402;6.778;2024-02-04T02:20:19;2.67;;;2.58;;
7783;SDS011;19359;51.402;6.778;2024-02-04T02:22:50;3.53;;;2.83;;
7783;SDS011;19359;51.402;6.778;2024-02-04T02:25:21;3.70;;;2.70;;
7783;SDS011;19359;51.402;6.778;2024-02-04T02:27:49;4.65;;;3.30;;
7783;SDS011;19359;51.402;6.778;2024-02-04T02:30:16;2.42;;;2.25;;
7783;SDS011;19359;51.402;6.778;2024-02-04T02:32:43;2.90;;;2.70;;
7783;SDS011;19359;51.402;6.778;2024-02-04T02:35:11;2.85;;;2.65;;
7783;SDS011;19359;51.402;6.778;2024-02-04T02:37:40;2.20;;;2.10;;
7783;SDS011;19359;51.402;6.778;2024-02-04T02:40:12;3.83;;;3.50;;
7783;SDS011;19359;51.402;6.778;2024-02-04T02:42:49;2.95;;;2.75;;
7783;SDS011;19359;51.402;6.778;2024-02-04T02:45:18;3.90;;;3.50;;
7783;SDS011;19359;51.402;6.778;2024-02-04T02:47:47;4.03;;;3.65;;
7783;SDS011;19359;51.402;6.778;2024-02-04T02:50:15;4.43;;;4.00;;
7783;SDS011;19359;51.402;6.778;2024-02-04T02:52:42;4.75;;;3.58;;
7783;SDS011;19359;51.402;6.778;2024-02-04T02:55:09;4.60;;;4.18;;
7783;SDS011;19359;51.402;6.778;2024-02-04T02:57:36;4.75;;;4.22;;
7783;SDS011;19359;51.402;6.778;2024-02-04T03:00:04;5.50;;;3.97;;
7783;SDS011;19359;51.402;6.778;2024-02-04T03:02:32;6.45;;;4.90;;
7783;SDS011;19359;51.402;6.778;2024-02-04T03:04:59;4.72;;;4.32;;
7783;SDS011;19359;51.402;6.778;2024-02-04T03:07:26;5.45;;;4.60;;
7783;SDS011;19359;51.402;6.778;2024-02-04T03:09:53;5.30;;;4.65;;
7783;SDS011;19359;51.402;6.778;2024-02-04T03:12:20;6.60;;;4.65;;
7783;SDS011;19359;51.402;6.778;2024-02-04T03:14:47;5.75;;;4.22;;
7783;SDS011;19359;51.402;6.778;2024-02-04T03:17:15;7.55;;;5.05;;
7783;SDS011;19359;51.402;6.778;2024-02-04T03:19:45;7.47;;;6.00;;
7783;SDS011;19359;51.402;6.778;2024-02-04T03:22:12;6.20;;;4.85;;
7783;SDS011;19359;51.402;6.778;2024-02-04T03:24:39;7.70;;;5.53;;
7783;SDS011;19359;51.402;6.778;2024-02-04T03:27:06;6.18;;;5.40;;
7783;SDS011;19359;51.402;6.778;2024-02-04T03:29:33;9.35;;;5.93;;
7783;SDS011;19359;51.402;6.778;2024-02-04T03:32:00;6.13;;;5.53;;
7783;SDS011;19359;51.402;6.778;2024-02-04T03:34:28;5.35;;;4.57;;
7783;SDS011;19359;51.402;6.778;2024-02-04T03:36:55;6.90;;;5.60;;
7783;SDS011;19359;51.402;6.778;2024-02-04T03:39:22;12.18;;;6.13;;
7783;SDS011;19359;51.402;6.778;2024-02-04T03:41:48;4.55;;;4.03;;
7783;SDS011;19359;51.402;6.778;2024-02-04T03:44:15;4.70;;;4.22;;
7783;SDS011;19359;51.402;6.778;2024-02-04T03:46:42;5.00;;;4.50;;
7783;SDS011;19359;51.402;6.778;2024-02-04T03:49:09;7.00;;;5.03;;
7783;SDS011;19359;51.402;6.778;2024-02-04T03:51:37;4.65;;;3.78;;
7783;SDS011;19359;51.402;6.778;2024-02-04T03:54:03;4.53;;;4.13;;
7783;SDS011;19359;51.402;6.778;2024-02-04T03:56:30;4.15;;;3.63;;
7783;SDS011;19359;51.402;6.778;2024-02-04T03:58:57;3.97;;;3.67;;
7783;SDS011;19359;51.402;6.778;2024-02-04T04:01:24;3.75;;;3.17;;
7783;SDS011;19359;51.402;6.778;2024-02-04T04:03:51;4.80;;;4.25;;
7783;SDS011;19359;51.402;6.778;2024-02-04T04:06:17;4.55;;;3.15;;
7783;SDS011;19359;51.402;6.778;2024-02-04T04:08:45;3.85;;;3.50;;
7783;SDS011;19359;51.402;6.778;2024-02-04T04:11:12;4.45;;;4.00;;
7783;SDS011;19359;51.402;6.778;2024-02-04T04:13:39;5.97;;;4.68;;
7783;SDS011;19359;51.402;6.778;2024-02-04T04:16:05;6.35;;;5.25;;
7783;SDS011;19359;51.402;6.778;2024-02-04T04:18:32;6.38;;;4.75;;
7783;SDS011;19359;51.402;6.778;2024-02-04T04:20:59;9.88;;;6.43;;
7783;SDS011;19359;51.402;6.778;2024-02-04T04:23:27;12.82;;;6.05;;
7783;SDS011;19359;51.402;6.778;2024-02-04T04:25:55;11.13;;;7.43;;
7783;SDS011;19359;51.402;6.778;2024-02-04T04:28:21;11.15;;;7.32;;
7783;SDS011;19359;51.402;6.778;2024-02-04T04:30:48;11.30;;;7.10;;
7783;SDS011;19359;51.402;6.778;2024-02-04T04:33:15;13.02;;;6.32;;
7783;SDS011;19359;51.402;6.778;2024-02-04T04:35:41;11.35;;;7.20;;
7783;SDS011;19359;51.402;6.778;2024-02-04T04:38:08;11.32;;;7.68;;
7783;SDS011;19359;51.402;6.778;2024-02-04T04:40:35;15.50;;;5.82;;
7783;SDS011;19359;51.402;6.778;2024-02-04T04:43:03;11.82;;;6.97;;
7783;SDS011;19359;51.402;6.778;2024-02-04T04:45:30;5.97;;;5.30;;
7783;SDS011;19359;51.402;6.778;2024-02-04T04:47:56;15.55;;;7.35;;
7783;SDS011;19359;51.402;6.778;2024-02-04T04:50:23;11.45;;;6.57;;
7783;SDS011;19359;51.402;6.778;2024-02-04T04:52:50;8.40;;;5.88;;
7783;SDS011;19359;51.402;6.778;2024-02-04T04:55:18;8.50;;;6.57;;
7783;SDS011;19359;51.402;6.778;2024-02-04T04:57:45;7.95;;;5.90;;
7783;SDS011;19359;51.402;6.778;2024-02-04T05:00:14;7.95;;;4.78;;
7783;SDS011;19359;51.402;6.778;2024-02-04T05:02:41;13.80;;;6.97;;
7783;SDS011;19359;51.402;6.778;2024-02-04T05:05:09;14.68;;;5.50;;
7783;SDS011;19359;51.402;6.778;2024-02-04T05:07:36;7.85;;;6.07;;
7783;SDS011;19359;51.402;6.778;2024-02-04T05:10:03;8.93;;;6.90;;
7783;SDS011;19359;51.402;6.778;2024-02-04T05:12:32;9.07;;;6.93;;
7783;SDS011;19359;51.402;6.778;2024-02-04T05:14:59;10.82;;;7.28;;
7783;SDS011;19359;51.402;6.778;2024-02-04T05:17:27;13.45;;;7.22;;
7783;SDS011;19359;51.402;6.778;2024-02-04T05:19:54;12.32;;;7.25;;
7783;SDS011;19359;51.402;6.778;2024-02-04T05:22:21;8.43;;;6.40;;
7783;SDS011;19359;51.402;6.778;2024-02-04T05:24:48;12.43;;;7.95;;
7783;SDS011;19359;51.402;6.778;2024-02-04T05:27:14;10.45;;;7.60;;
7783;SDS011;19359;51.402;6.778;2024-02-04T05:29:41;16.27;;;8.05;;
7783;SDS011;19359;51.402;6.778;2024-02-04T05:32:08;11.77;;;8.15;;
7783;SDS011;19359;51.402;6.778;2024-02-04T05:34:37;14.57;;;8.95;;
7783;SDS011;19359;51.402;6.778;2024-02-04T05:37:04;13.05;;;8.00;;
7783;SDS011;19359;51.402;6.778;2024-02-04T05:39:31;13.60;;;8.57;;
7783;SDS011;19359;51.402;6.778;2024-02-04T05:41:58;12.20;;;8.52;;
7783;SDS011;19359;51.402;6.778;2024-02-04T05:44:24;15.38;;;10.48;;
7783;SDS011;19359;51.402;6.778;2024-02-04T05:46:51;19.45;;;10.88;;
7783;SDS011;19359;51.402;6.778;2024-02-04T05:49:18;13.82;;;8.15;;
7783;SDS011;19359;51.402;6.778;2024-02-04T05:51:46;15.15;;;9.20;;
7783;SDS011;19359;51.402;6.778;2024-02-04T05:54:12;15.35;;;8.77;;
7783;SDS011;19359;51.402;6.778;2024-02-04T05:56:39;14.48;;;8.20;;
7783;SDS011;19359;51.402;6.778;2024-02-04T05:59:06;13.80;;;7.80;;
7783;SDS011;19359;51.402;6.778;2024-02-04T06:01:33;12.98;;;10.13;;
7783;SDS011;19359;51.402;6.778;2024-02-04T06:03:59;14.23;;;9.48;;
7783;SDS011;19359;51.402;6.778;2024-02-04T06:06:26;14.23;;;9.25;;
7783;SDS011;19359;51.402;6.778;2024-02-04T06:08:54;13.95;;;9.13;;
7783;SDS011;19359;51.402;6.778;2024-02-04T06:11:21;20.60;;;9.82;;
7783;SDS011;19359;51.402;6.778;2024-02-04T06:13:47;13.80;;;8.13;;
7783;SDS011;19359;51.402;6.778;2024-02-04T06:16:15;18.92;;;9.55;;
7783;SDS011;19359;51.402;6.778;2024-02-04T06:18:42;17.17;;;9.63;;
7783;SDS011;19359;51.402;6.778;2024-02-04T06:21:08;14.45;;;8.13;;
7783;SDS011;19359;51.402;6.778;2024-02-04T06:23:35;18.90;;;10.15;;
7783;SDS011;19359;51.402;6.778;2024-02-04T06:26:06;14.10;;;9.05;;
7783;SDS011;19359;51.402;6.778;2024-02-04T06:28:32;20.25;;;8.00;;
7783;SDS011;19359;51.402;6.778;2024-02-04T06:30:59;14.82;;;8.07;;
7783;SDS011;19359;51.402;6.778;2024-02-04T06:33:27;12.60;;;9.57;;
7783;SDS011;19359;51.402;6.778;2024-02-04T06:35:54;12.63;;;7.68;;
7783;SDS011;19359;51.402;6.778;2024-02-04T06:38:21;16.40;;;7.35;;
7783;SDS011;19359;51.402;6.778;2024-02-04T06:40:47;12.38;;;8.23;;
7783;SDS011;19359;51.402;6.778;2024-02-04T06:43:15;12.02;;;6.03;;
7783;SDS011;19359;51.402;6.778;2024-02-04T06:45:42;12.85;;;9.15;;
7783;SDS011;19359;51.402;6.778;2024-02-04T06:48:09;14.73;;;8.38;;
7783;SDS011;19359;51.402;6.778;2024-02-04T06:50:36;12.00;;;7.10;;
7783;SDS011;19359;51.402;6.778;2024-02-04T06:53:03;14.32;;;7.13;;
7783;SDS011;19359;51.402;6.778;2024-02-04T06:55:30;14.20;;;7.20;;
7783;SDS011;19359;51.402;6.778;2024-02-04T06:57:57;11.88;;;6.75;;
7783;SDS011;19359;51.402;6.778;2024-02-04T07:00:25;17.60;;;7.40;;
7783;SDS011;19359;51.402;6.778;2024-02-04T07:02:52;12.48;;;6.47;;
7783;SDS011;19359;51.402;6.778;2024-02-04T07:05:18;8.95;;;6.68;;
7783;SDS011;19359;51.402;6.778;2024-02-04T07:07:47;10.00;;;6.40;;
7783;SDS011;19359;51.402;6.778;2024-02-04T07:10:13;7.15;;;5.13;;
7783;SDS011;19359;51.402;6.778;2024-02-04T07:12:40;10.20;;;6.30;;
7783;SDS011;19359;51.402;6.778;2024-02-04T07:15:07;16.48;;;6.53;;
7783;SDS011;19359;51.402;6.778;2024-02-04T07:17:36;14.80;;;5.93;;
7783;SDS011;19359;51.402;6.778;2024-02-04T07:20:02;13.13;;;6.60;;
7783;SDS011;19359;51.402;6.778;2024-02-04T07:22:30;10.27;;;7.10;;
7783;SDS011;19359;51.402;6.778;2024-02-04T07:24:57;9.90;;;6.88;;
7783;SDS011;19359;51.402;6.778;2024-02-04T07:27:24;8.40;;;5.80;;
7783;SDS011;19359;51.402;6.778;2024-02-04T07:29:51;7.10;;;5.55;;
7783;SDS011;19359;51.402;6.778;2024-02-04T07:32:19;13.75;;;5.80;;
7783;SDS011;19359;51.402;6.778;2024-02-04T07:34:49;8.85;;;5.90;;
7783;SDS011;19359;51.402;6.778;2024-02-04T07:37:16;14.95;;;6.85;;
7783;SDS011;19359;51.402;6.778;2024-02-04T07:39:43;10.32;;;6.40;;
7783;SDS011;19359;51.402;6.778;2024-02-04T07:42:10;9.00;;;5.25;;
7783;SDS011;19359;51.402;6.778;2024-02-04T07:44:37;7.82;;;5.22;;
7783;SDS011;19359;51.402;6.778;2024-02-04T07:47:03;6.38;;;5.00;;
7783;SDS011;19359;51.402;6.778;2024-02-04T07:49:30;8.93;;;5.28;;
7783;SDS011;19359;51.402;6.778;2024-02-04T07:51:59;10.40;;;5.95;;
7783;SDS011;19359;51.402;6.778;2024-02-04T07:54:25;7.15;;;5.10;;
7783;SDS011;19359;51.402;6.778;2024-02-04T07:56:52;6.78;;;5.53;;
7783;SDS011;19359;51.402;6.778;2024-02-04T07:59:19;6.35;;;4.53;;
7783;SDS011;19359;51.402;6.778;2024-02-04T08:01:46;8.68;;;5.43;;
7783;SDS011;19359;51.402;6.778;2024-02-04T08:04:13;9.30;;;6.20;;
7783;SDS011;19359;51.402;6.778;2024-02-04T08:06:40;12.00;;;5.68;;
7783;SDS011;19359;51.402;6.778;2024-02-04T08:09:08;9.43;;;5.07;;
7783;SDS011;19359;51.402;6.778;2024-02-04T08:11:35;7.57;;;3.80;;
7783;SDS011;19359;51.402;6.778;2024-02-04T08:14:02;3.35;;;2.50;;
7783;SDS011;19359;51.402;6.778;2024-02-04T08:16:29;4.60;;;4.13;;
7783;SDS011;19359;51.402;6.778;2024-02-04T08:18:56;4.32;;;3.50;;
7783;SDS011;19359;51.402;6.778;2024-02-04T08:21:22;3.90;;;3.47;;
7783;SDS011;19359;51.402;6.778;2024-02-04T08:23:49;4.28;;;3.88;;
7783;SDS011;19359;51.402;6.778;2024-02-04T08:26:17;7.70;;;5.15;;
7783;SDS011;19359;51.402;6.778;2024-02-04T08:28:44;8.93;;;5.47;;
7783;SDS011;19359;51.402;6.778;2024-02-04T08:31:10;8.57;;;5.35;;
7783;SDS011;19359;51.402;6.778;2024-02-04T08:33:37;10.00;;;6.05;;
7783;SDS011;19359;51.402;6.778;2024-02-04T08:36:04;8.43;;;5.60;;
7783;SDS011;19359;51.402;6.778;2024-02-04T08:38:35;6.80;;;4.90;;
7783;SDS011;19359;51.402;6.778;2024-02-04T08:41:02;4.65;;;3.60;;
7783;SDS011;19359;51.402;6.778;2024-02-04T08:43:30;7.35;;;4.75;;
7783;SDS011;19359;51.402;6.778;2024-02-04T08:45:57;9.40;;;5.63;;
7783;SDS011;19359;51.402;6.778;2024-02-04T08:48:24;8.55;;;5.63;;
7783;SDS011;19359;51.402;6.778;2024-02-04T08:50:50;7.50;;;4.88;;
7783;SDS011;19359;51.402;6.778;2024-02-04T08:53:19;7.25;;;4.88;;
7783;SDS011;19359;51.402;6.778;2024-02-04T08:55:46;6.05;;;4.28;;
7783;SDS011;19359;51.402;6.778;2024-02-04T08:58:12;4.55;;;3.58;;
7783;SDS011;19359;51.402;6.778;2024-02-04T09:00:40;2.33;;;2.13;;
7783;SDS011;19359;51.402;6.778;2024-02-04T09:03:07;8.20;;;4.40;;
7783;SDS011;19359;51.402;6.778;2024-02-04T09:05:34;7.60;;;4.57;;
7783;SDS011;19359;51.402;6.778;2024-02-04T09:08:01;8.68;;;5.80;;
7783;SDS011;19359;51.402;6.778;2024-02-04T09:10:27;10.02;;;4.35;;
7783;SDS011;19359;51.402;6.778;2024-02-04T09:12:54;6.07;;;4.55;;
7783;SDS011;19359;51.402;6.778;2024-02-04T09:15:21;6.88;;;5.10;;
7783;SDS011;19359;51.402;6.778;2024-02-04T09:17:49;7.85;;;4.78;;
7783;SDS011;19359;51.402;6.778;2024-02-04T09:20:16;9.32;;;4.22;;
7783;SDS011;19359;51.402;6.778;2024-02-04T09:22:42;10.50;;;6.32;;
7783;SDS011;19359;51.402;6.778;2024-02-04T09:25:09;4.78;;;4.18;;
7783;SDS011;19359;51.402;6.778;2024-02-04T09:27:36;4.47;;;4.07;;
7783;SDS011;19359;51.402;6.778;2024-02-04T09:30:03;4.68;;;4.18;;
7783;SDS011;19359;51.402;6.778;2024-02-04T09:32:30;3.42;;;3.13;;
7783;SDS011;19359;51.402;6.778;2024-02-04T09:35:00;4.68;;;4.28;;
7783;SDS011;19359;51.402;6.778;2024-02-04T09:37:27;6.95;;;5.00;;
7783;SDS011;19359;51.402;6.778;2024-02-04T09:39:53;5.65;;;4.30;;
7783;SDS011;19359;51.402;6.778;2024-02-04T09:42:20;3.58;;;2.97;;
7783;SDS011;19359;51.402;6.778;2024-02-04T09:44:48;4.85;;;4.28;;
7783;SDS011;19359;51.402;6.778;2024-02-04T09:47:15;4.43;;;3.28;;
7783;SDS011;19359;51.402;6.778;2024-02-04T09:49:42;8.70;;;4.28;;
7783;SDS011;19359;51.402;6.778;2024-02-04T09:52:10;4.07;;;3.72;;
7783;SDS011;19359;51.402;6.778;2024-02-04T09:54:40;4.13;;;3.63;;
7783;SDS011;19359;51.402;6.778;2024-02-04T09:57:09;4.20;;;3.45;;
7783;SDS011;19359;51.402;6.778;2024-02-04T09:59:36;4.60;;;3.92;;
7783;SDS011;19359;51.402;6.778;2024-02-04T10:02:03;5.38;;;3.78;;
7783;SDS011;19359;51.402;6.778;2024-02-04T10:04:30;4.13;;;2.88;;
7783;SDS011;19359;51.402;6.778;2024-02-04T10:06:57;2.22;;;1.98;;
7783;SDS011;19359;51.402;6.778;2024-02-04T10:09:25;2.72;;;2.50;;
7783;SDS011;19359;51.402;6.778;2024-02-04T10:11:52;4.07;;;2.15;;
7783;SDS011;19359;51.402;6.778;2024-02-04T10:14:19;3.38;;;2.90;;
7783;SDS011;19359;51.402;6.778;2024-02-04T10:16:46;2.50;;;2.35;;
7783;SDS011;19359;51.402;6.778;2024-02-04T10:19:12;3.58;;;3.28;;
7783;SDS011;19359;51.402;6.778;2024-02-04T10:21:40;3.35;;;2.33;;
7783;SDS011;19359;51.402;6.778;2024-02-04T10:24:07;3.38;;;3.15;;
7783;SDS011;19359;51.402;6.778;2024-02-04T10:26:35;5.22;;;3.13;;
7783;SDS011;19359;51.402;6.778;2024-02-04T10:29:02;4.85;;;3.70;;
7783;SDS011;19359;51.402;6.778;2024-02-04T10:31:29;6.72;;;3.60;;
7783;SDS011;19359;51.402;6.778;2024-02-04T10:33:56;4.13;;;3.25;;
7783;SDS011;19359;51.402;6.778;2024-02-04T10:36:23;3.03;;;2.72;;
7783;SDS011;19359;51.402;6.778;2024-02-04T10:38:50;2.92;;;2.33;;
7783;SDS011;19359;51.402;6.778;2024-02-04T10:41:18;2.70;;;2.50;;
7783;SDS011;19359;51.402;6.778;2024-02-04T10:43:47;4.47;;;3.25;;
7783;SDS011;19359;51.402;6.778;2024-02-04T10:46:17;8.55;;;3.85;;
7783;SDS011;19359;51.402;6.778;2024-02-04T10:48:45;3.83;;;3.53;;
7783;SDS011;19359;51.402;6.778;2024-02-04T10:51:17;3.28;;;2.97;;
7783;SDS011;19359;51.402;6.778;2024-02-04T10:53:50;3.10;;;2.90;;
7783;SDS011;19359;51.402;6.778;2024-02-04T10:56:21;3.38;;;1.65;;
7783;SDS011;19359;51.402;6.778;2024-02-04T10:58:53;1.95;;;1.73;;
7783;SDS011;19359;51.402;6.778;2024-02-04T11:01:21;1.52;;;1.42;;
7783;SDS011;19359;51.402;6.778;2024-02-04T11:03:48;1.85;;;1.67;;
7783;SDS011;19359;51.402;6.778;2024-02-04T11:06:20;1.27;;;1.20;;
7783;SDS011;19359;51.402;6.778;2024-02-04T11:08:48;1.58;;;1.40;;
7783;SDS011;19359;51.402;6.778;2024-02-04T11:11:15;1.75;;;1.65;;
7783;SDS011;19359;51.402;6.778;2024-02-04T11:13:43;1.52;;;1.42;;
7783;SDS011;19359;51.402;6.778;2024-02-04T11:16:15;3.00;;;2.00;;
7783;SDS011;19359;51.402;6.778;2024-02-04T11:18:54;2.60;;;2.38;;
7783;SDS011;19359;51.402;6.778;2024-02-04T11:21:38;2.30;;;2.08;;
7783;SDS011;19359;51.402;6.778;2024-02-04T11:24:19;2.22;;;2.00;;
7783;SDS011;19359;51.402;6.778;2024-02-04T11:26:58;1.98;;;1.88;;
7783;SDS011;19359;51.402;6.778;2024-02-04T11:29:25;2.38;;;2.17;;
7783;SDS011;19359;51.402;6.778;2024-02-04T11:31:54;1.77;;;1.65;;
7783;SDS011;19359;51.402;6.778;2024-02-04T11:34:22;4.55;;;2.58;;
7783;SDS011;19359;51.402;6.778;2024-02-04T11:36:49;3.28;;;3.08;;
7783;SDS011;19359;51.402;6.778;2024-02-04T11:39:17;4.35;;;3.10;;
7783;SDS011;19359;51.402;6.778;2024-02-04T11:41:47;4.75;;;3.17;;
7783;SDS011;19359;51.402;6.778;2024-02-04T11:44:21;2.88;;;2.53;;
7783;SDS011;19359;51.402;6.778;2024-02-04T11:46:48;3.58;;;3.28;;
7783;SDS011;19359;51.402;6.778;2024-02-04T11:49:17;3.63;;;2.63;;
7783;SDS011;19359;51.402;6.778;2024-02-04T11:51:47;2.53;;;2.33;;
7783;SDS011;19359;51.402;6.778;2024-02-04T11:54:14;3.92;;;2.70;;
7783;SDS011;19359;51.402;6.778;2024-02-04T11:56:43;5.70;;;3.45;;
7783;SDS011;19359;51.402;6.778;2024-02-04T11:59:11;4.53;;;3.25;;
7783;SDS011;19359;51.402;6.778;2024-02-04T12:01:39;5.22;;;1.67;;
7783;SDS011;19359;51.402;6.778;2024-02-04T12:04:09;3.53;;;3.15;;
7783;SDS011;19359;51.402;6.778;2024-02-04T12:06:38;5.90;;;2.92;;
7783;SDS011;19359;51.402;6.778;2024-02-04T12:09:06;3.90;;;2.72;;
7783;SDS011;19359;51.402;6.778;2024-02-04T12:11:35;2.78;;;2.20;;
7783;SDS011;19359;51.402;6.778;2024-02-04T12:14:03;4.53;;;2.70;;
7783;SDS011;19359;51.402;6.778;2024-02-04T12:16:31;3.38;;;3.10;;
7783;SDS011;19359;51.402;6.778;2024-02-04T12:19:00;5.05;;;3.15;;
7783;SDS011;19359;51.402;6.778;2024-02-04T12:21:28;3.05;;;2.75;;
7783;SDS011;19359;51.402;6.778;2024-02-04T12:23:56;5.45;;;2.55;;
7783;SDS011;19359;51.402;6.778;2024-02-04T12:26:24;2.58;;;2.38;;
7783;SDS011;19359;51.402;6.778;2024-02-04T12:28:51;6.00;;;2.67;;
7783;SDS011;19359;51.402;6.778;2024-02-04T12:31:19;5.00;;;1.88;;
7783;SDS011;19359;51.402;6.778;2024-02-04T12:33:52;2.90;;;2.45;;
7783;SDS011;19359;51.402;6.778;2024-02-04T12:36:22;1.88;;;1.77;;
7783;SDS011;19359;51.402;6.778;2024-02-04T12:38:51;3.88;;;2.15;;
7783;SDS011;19359;51.402;6.778;2024-02-04T12:41:20;1.98;;;1.88;;
7783;SDS011;19359;51.402;6.778;2024-02-04T12:43:49;2.55;;;2.38;;
7783;SDS011;19359;51.402;6.778;2024-02-04T12:46:17;4.13;;;2.58;;
7783;SDS011;19359;51.402;6.778;2024-02-04T12:48:44;2.88;;;2.67;;
7783;SDS011;19359;51.402;6.778;2024-02-04T12:51:11;2.03;;;1.83;;
7783;SDS011;19359;51.402;6.778;2024-02-04T12:53:37;2.97;;;2.65;;
7783;SDS011;19359;51.402;6.778;2024-02-04T12:56:04;7.43;;;2.30;;
7783;SDS011;19359;51.402;6.778;2024-02-04T12:58:41;3.55;;;2.30;;
7783;SDS011;19359;51.402;6.778;2024-02-04T13:01:08;1.83;;;1.77;;
7783;SDS011;19359;51.402;6.778;2024-02-04T13:03:35;1.15;;;1.15;;
7783;SDS011;19359;51.402;6.778;2024-02-04T13:06:02;1.55;;;1.45;;
7783;SDS011;19359;51.402;6.778;2024-02-04T13:08:29;2.70;;;2.50;;
7783;SDS011;19359;51.402;6.778;2024-02-04T13:10:56;3.20;;;2.95;;
7783;SDS011;19359;51.402;6.778;2024-02-04T13:13:23;3.60;;;2.03;;
7783;SDS011;19359;51.402;6.778;2024-02-04T13:15:53;2.70;;;2.60;;
7783;SDS011;19359;51.402;6.778;2024-02-04T13:18:21;3.67;;;2.58;;
7783;SDS011;19359;51.402;6.778;2024-02-04T13:20:48;4.43;;;2.63;;
7783;SDS011;19359;51.402;6.778;2024-02-04T13:23:15;3.53;;;2.80;;
7783;SDS011;19359;51.402;6.778;2024-02-04T13:25:41;2.85;;;2.50;;
7783;SDS011;19359;51.402;6.778;2024-02-04T13:28:07;2.55;;;2.35;;
7783;SDS011;19359;51.402;6.778;2024-02-04T13:30:34;4.88;;;3.20;;
7783;SDS011;19359;51.402;6.778;2024-02-04T13:33:02;2.92;;;2.72;;
7783;SDS011;19359;51.402;6.778;2024-02-04T13:35:29;3.40;;;2.55;;
7783;SDS011;19359;51.402;6.778;2024-02-04T13:37:56;3.95;;;2.05;;
7783;SDS011;19359;51.402;6.778;2024-02-04T13:40:24;2.95;;;2.75;;
7783;SDS011;19359;51.402;6.778;2024-02-04T13:42:51;2.72;;;2.53;;
7783;SDS011;19359;51.402;6.778;2024-02-04T13:45:18;4.55;;;3.55;;
7783;SDS011;19359;51.402;6.778;2024-02-04T13:47:44;1.65;;;1.55;;
7783;SDS011;19359;51.402;6.778;2024-02-04T13:50:14;3.42;;;2.67;;
7783;SDS011;19359;51.402;6.778;2024-02-04T13:52:41;5.15;;;2.53;;
7783;SDS011;19359;51.402;6.778;2024-02-04T13:55:08;7.22;;;3.10;;
7783;SDS011;19359;51.402;6.778;2024-02-04T13:57:35;3.63;;;2.22;;
7783;SDS011;19359;51.402;6.778;2024-02-04T14:00:02;3.00;;;2.75;;
7783;SDS011;19359;51.402;6.778;2024-02-04T14:02:32;2.92;;;2.72;;
7783;SDS011;19359;51.402;6.778;2024-02-04T14:04:59;3.95;;;3.65;;
7783;SDS011;19359;51.402;6.778;2024-02-04T14:07:27;3.25;;;2.83;;
7783;SDS011;19359;51.402;6.778;2024-02-04T14:09:54;3.22;;;2.90;;
7783;SDS011;19359;51.402;6.778;2024-02-04T14:12:21;3.53;;;3.17;;
7783;SDS011;19359;51.402;6.778;2024-02-04T14:14:48;4.78;;;3.15;;
7783;SDS011;19359;51.402;6.778;2024-02-04T14:17:15;3.90;;;3.60;;
7783;SDS011;19359;51.402;6.778;2024-02-04T14:19:42;2.75;;;2.65;;
7783;SDS011;19359;51.402;6.778;2024-02-04T14:22:13;3.75;;;3.33;;
7783;SDS011;19359;51.402;6.778;2024-02-04T14:24:41;4.15;;;3.28;;
7783;SDS011;19359;51.402;6.778;2024-02-04T14:27:10;4.25;;;2.60;;
7783;SDS011;19359;51.402;6.778;2024-02-04T14:29:37;3.67;;;2.92;;
7783;SDS011;19359;51.402;6.778;2024-02-04T14:32:04;4.72;;;3.17;;
7783;SDS011;19359;51.402;6.778;2024-02-04T14:34:31;6.28;;;3.38;;
7783;SDS011;19359;51.402;6.778;2024-02-04T14:36:58;10.68;;;3.15;;
7783;SDS011;19359;51.402;6.778;2024-02-04T14:39:25;4.80;;;3.15;;
7783;SDS011;19359;51.402;6.778;2024-02-04T14:41:53;5.68;;;2.63;;
7783;SDS011;19359;51.402;6.778;2024-02-04T14:44:21;3.70;;;3.40;;
7783;SDS011;19359;51.402;6.778;2024-02-04T14:46:48;3.88;;;3.38;;
7783;SDS011;19359;51.402;6.778;2024-02-04T14:49:15;3.88;;;3.60;;
7783;SDS011;19359;51.402;6.778;2024-02-04T14:51:42;3.83;;;3.47;;
7783;SDS011;19359;51.402;6.778;2024-02-04T14:54:09;7.35;;;3.83;;
7783;SDS011;19359;51.402;6.778;2024-02-04T14:56:38;2.70;;;2.50;;
7783;SDS011;19359;51.402;6.778;2024-02-04T14:59:08;3.90;;;3.60;;